Time;durP1;ratioP1;P1;durP2;ratioP2;P2;SDS_P1;SDS_P2;PMS_P1;PMS_P2;Temp;Humidity;BMP_temperature;BMP_pressure;BME280_temperature;BME280_humidity;BME280_pressure;Samples;Min_cycle;Max_cycle;Signal;HPM_P1;HPM_P2
2022/06/07 00:00:11;;;;;;;;;;;21.00;66.90;;;;;;5048114;28;82009;-44
2022/06/07 00:02:36;;;;;;;;;;;21.00;67.00;;;;;;5047545;28;83005;-46
2022/06/07 00:05:03;;;;;;;;;;;21.00;67.00;;;;;;5047637;27;84363;-45
2022/06/07 00:07:29;;;;;;;;;;;21.00;67.00;;;;;;5047980;28;81981;-45
2022/06/07 00:09:54;;;;;;;;;;;20.90;67.00;;;;;;5047900;28;82387;-45
2022/06/07 00:12:20;;;;;;;;;;;20.90;67.10;;;;;;5049787;28;82937;-44
2022/06/07 00:14:46;;;;;;;;;;;20.90;67.00;;;;;;5047970;28;82554;-47
2022/06/07 00:17:12;;;;;;;;;;;20.90;66.80;;;;;;5047664;28;82986;-46
2022/06/07 00:19:38;;;;;;;;;;;20.90;67.00;;;;;;5048265;28;81347;-46
2022/06/07 00:22:04;;;;;;;;;;;20.80;67.00;;;;;;5047830;28;81932;-47
2022/06/07 00:24:29;;;;;;;;;;;20.80;67.10;;;;;;5047324;28;83053;-45
2022/06/07 00:26:55;;;;;;;;;;;20.80;67.00;;;;;;5047013;28;83123;-45
2022/06/07 00:29:21;;;;;;;;;;;20.80;66.90;;;;;;5047056;27;83123;-44
2022/06/07 00:31:47;;;;;;;;;;;20.80;67.00;;;;;;5047259;28;82573;-44
2022/06/07 00:34:13;;;;;;;;;;;20.80;66.90;;;;;;5050339;28;82001;-45
2022/06/07 00:36:40;;;;;;;;;;;20.70;67.10;;;;;;5047163;28;83492;-46
2022/06/07 00:39:05;;;;;;;;;;;20.70;67.00;;;;;;5047615;28;81978;-44
2022/06/07 00:41:31;;;;;;;;;;;20.70;67.00;;;;;;5047355;27;82089;-45
2022/06/07 00:44:15;;;;;;;;;;;20.70;67.00;;;;;;5047489;28;82095;-46
2022/06/07 00:46:43;;;;;;;;;;;20.70;67.00;;;;;;5047616;27;82091;-46
2022/06/07 00:49:10;;;;;;;;;;;20.70;67.00;;;;;;5047281;27;82027;-46
2022/06/07 00:51:35;;;;;;;;;;;20.70;67.10;;;;;;5046307;28;84112;-45
2022/06/07 00:54:01;;;;;;;;;;;20.70;67.10;;;;;;5047313;28;81969;-44
2022/06/07 00:56:26;;;;;;;;;;;20.60;67.10;;;;;;5048536;28;81984;-46
2022/06/07 00:58:52;;;;;;;;;;;20.60;67.10;;;;;;5047165;28;82157;-48
2022/06/07 01:01:17;;;;;;;;;;;20.60;67.20;;;;;;5047277;28;82367;-45
2022/06/07 01:03:43;;;;;;;;;;;20.60;67.20;;;;;;5046932;28;84476;-45
2022/06/07 01:11:53;;;;;;;;;;;20.50;67.10;;;;;;5043483;28;82181;-45
2022/06/07 01:14:18;;;;;;;;;;;20.50;67.00;;;;;;5046049;28;82135;-46
2022/06/07 01:16:44;;;;;;;;;;;20.50;66.90;;;;;;5048835;28;82903;-48
2022/06/07 01:19:10;;;;;;;;;;;20.50;67.00;;;;;;5046834;28;81830;-44
2022/06/07 01:21:37;;;;;;;;;;;20.50;66.90;;;;;;5046648;27;82365;-45
2022/06/07 01:24:03;;;;;;;;;;;20.50;66.80;;;;;;5046560;28;82742;-45
2022/06/07 01:26:28;;;;;;;;;;;20.50;67.10;;;;;;5046287;28;82157;-46
2022/06/07 01:28:54;;;;;;;;;;;20.40;66.90;;;;;;5046493;28;82308;-44
2022/06/07 01:31:19;;;;;;;;;;;20.40;67.00;;;;;;5046490;28;82907;-45
2022/06/07 01:33:46;;;;;;;;;;;20.40;67.00;;;;;;5047336;28;81587;-44
2022/06/07 01:36:13;;;;;;;;;;;20.40;67.00;;;;;;5046253;27;83489;-44
2022/06/07 01:38:39;;;;;;;;;;;20.40;67.00;;;;;;5049113;28;83222;-44
2022/06/07 01:43:49;;;;;;;;;;;20.40;67.10;;;;;;5045403;28;82219;-45
2022/06/07 01:46:15;;;;;;;;;;;20.30;67.10;;;;;;5046444;28;81870;-45
2022/06/07 01:48:41;;;;;;;;;;;20.30;67.20;;;;;;5046148;28;81901;-47
2022/06/07 01:51:07;;;;;;;;;;;20.30;67.00;;;;;;5045963;28;83670;-47
2022/06/07 01:53:33;;;;;;;;;;;20.30;67.10;;;;;;5046347;28;82001;-46
2022/06/07 01:56:01;;;;;;;;;;;20.30;67.10;;;;;;5046143;27;84092;-44
2022/06/07 01:58:27;;;;;;;;;;;20.30;67.20;;;;;;5046645;28;82005;-48
2022/06/07 02:00:53;;;;;;;;;;;20.20;67.20;;;;;;5049057;28;82090;-46
2022/06/07 02:03:18;;;;;;;;;;;20.20;67.10;;;;;;5045732;28;82887;-45
2022/06/07 02:05:52;;;;;;;;;;;20.20;67.10;;;;;;5045718;28;82993;-44
2022/06/07 02:08:18;;;;;;;;;;;20.20;67.20;;;;;;5045968;28;82388;-45
2022/06/07 02:10:43;;;;;;;;;;;20.20;67.20;;;;;;5045533;28;83042;-48
2022/06/07 02:13:09;;;;;;;;;;;20.20;67.20;;;;;;5046000;28;81879;-45
2022/06/07 02:15:34;;;;;;;;;;;20.20;67.30;;;;;;5046240;28;82442;-46
2022/06/07 02:18:01;;;;;;;;;;;20.20;67.20;;;;;;5045686;28;83011;-44
2022/06/07 02:20:26;;;;;;;;;;;20.20;67.10;;;;;;5046009;28;82079;-45
2022/06/07 02:22:52;;;;;;;;;;;20.20;67.10;;;;;;5048759;28;84290;-47
2022/06/07 02:25:17;;;;;;;;;;;20.20;67.10;;;;;;5045679;28;82110;-47
2022/06/07 02:27:43;;;;;;;;;;;20.20;67.10;;;;;;5045946;27;82386;-47
2022/06/07 02:30:09;;;;;;;;;;;20.20;67.20;;;;;;5045006;28;84011;-44
2022/06/07 02:32:34;;;;;;;;;;;20.20;67.10;;;;;;5045338;28;82183;-45
2022/06/07 02:35:01;;;;;;;;;;;20.20;67.10;;;;;;5045819;28;82443;-45
2022/06/07 02:37:28;;;;;;;;;;;20.10;67.30;;;;;;5045581;28;83042;-46
2022/06/07 02:39:54;;;;;;;;;;;20.10;67.30;;;;;;5045806;28;81939;-48
2022/06/07 02:42:22;;;;;;;;;;;20.00;67.40;;;;;;5045826;27;82575;-45
2022/06/07 02:44:48;;;;;;;;;;;20.10;67.30;;;;;;5048201;28;83123;-46
2022/06/07 02:47:13;;;;;;;;;;;20.10;67.20;;;;;;5045979;28;82273;-45
2022/06/07 02:49:39;;;;;;;;;;;20.10;67.30;;;;;;5045436;28;82889;-45
2022/06/07 02:52:04;;;;;;;;;;;20.00;67.30;;;;;;5045475;28;82049;-47
2022/06/07 02:54:30;;;;;;;;;;;20.00;67.30;;;;;;5044875;27;83775;-46
2022/06/07 02:56:55;;;;;;;;;;;20.00;67.30;;;;;;5045499;28;83215;-44
2022/06/07 02:59:21;;;;;;;;;;;20.00;67.30;;;;;;5045486;28;82113;-48
2022/06/07 03:01:46;;;;;;;;;;;20.00;67.40;;;;;;5043962;28;85804;-47
2022/06/07 03:04:12;;;;;;;;;;;19.90;67.40;;;;;;5045339;28;84296;-45
2022/06/07 03:06:37;;;;;;;;;;;20.00;67.30;;;;;;5047994;28;82077;-48
2022/06/07 03:09:03;;;;;;;;;;;20.00;67.40;;;;;;5045367;28;82879;-46
2022/06/07 03:11:29;;;;;;;;;;;19.90;67.40;;;;;;5045153;28;81388;-44
2022/06/07 03:13:54;;;;;;;;;;;19.90;67.40;;;;;;5045605;28;81918;-47
2022/06/07 03:16:20;;;;;;;;;;;19.90;67.50;;;;;;5045113;28;83320;-48
2022/06/07 03:18:45;;;;;;;;;;;19.90;67.50;;;;;;5045205;27;84018;-44
2022/06/07 03:21:11;;;;;;;;;;;19.90;67.50;;;;;;5048616;27;83382;-44
2022/06/07 03:23:36;;;;;;;;;;;19.80;67.60;;;;;;5048158;28;83722;-46
2022/06/07 03:26:03;;;;;;;;;;;19.80;67.70;;;;;;5051466;28;82092;-45
2022/06/07 03:28:28;;;;;;;;;;;19.80;67.70;;;;;;5048417;28;82878;-47
2022/06/07 03:30:54;;;;;;;;;;;19.80;67.50;;;;;;5048377;28;82202;-44
2022/06/07 03:33:19;;;;;;;;;;;19.80;67.50;;;;;;5048561;28;82313;-46
2022/06/07 03:35:45;;;;;;;;;;;19.80;67.60;;;;;;5048927;28;82463;-46
2022/06/07 03:38:10;;;;;;;;;;;19.80;67.70;;;;;;5048460;28;82120;-46
2022/06/07 03:40:45;;;;;;;;;;;19.70;67.80;;;;;;5048639;28;82381;-46
2022/06/07 03:43:10;;;;;;;;;;;19.70;67.80;;;;;;5047431;28;85411;-44
2022/06/07 03:45:36;;;;;;;;;;;19.70;67.80;;;;;;5048235;28;82050;-45
2022/06/07 03:48:02;;;;;;;;;;;19.70;67.80;;;;;;5051053;28;82461;-46
2022/06/07 03:50:27;;;;;;;;;;;19.70;67.70;;;;;;5048199;28;82049;-45
2022/06/07 03:52:53;;;;;;;;;;;19.70;67.70;;;;;;5048449;27;82353;-45
2022/06/07 03:55:18;;;;;;;;;;;19.70;67.70;;;;;;5048215;28;83029;-44
2022/06/07 03:57:44;;;;;;;;;;;19.70;68.30;;;;;;5047879;28;81938;-44
2022/06/07 04:00:10;;;;;;;;;;;19.70;67.60;;;;;;5048568;28;81193;-46
2022/06/07 04:02:36;;;;;;;;;;;19.70;67.80;;;;;;5047904;28;82057;-45
2022/06/07 04:05:01;;;;;;;;;;;19.70;67.90;;;;;;5048023;28;82066;-45
2022/06/07 04:10:11;;;;;;;;;;;19.70;67.60;;;;;;5050614;28;82257;-45
2022/06/07 04:12:36;;;;;;;;;;;19.70;67.70;;;;;;5047713;27;82275;-46
2022/06/07 04:15:02;;;;;;;;;;;19.70;67.70;;;;;;5047536;28;82856;-44
2022/06/07 04:17:27;;;;;;;;;;;19.70;67.70;;;;;;5048015;28;82117;-45
2022/06/07 04:19:53;;;;;;;;;;;19.70;67.60;;;;;;5048097;28;82551;-44
2022/06/07 04:22:18;;;;;;;;;;;19.70;67.70;;;;;;5047314;28;84862;-45
2022/06/07 04:24:44;;;;;;;;;;;19.60;67.90;;;;;;5048131;28;81419;-47
2022/06/07 04:27:10;;;;;;;;;;;19.60;67.80;;;;;;5047785;28;81655;-46
2022/06/07 04:29:35;;;;;;;;;;;19.60;67.90;;;;;;5047134;27;83994;-45
2022/06/07 04:32:01;;;;;;;;;;;19.60;67.70;;;;;;5049633;28;83013;-46
2022/06/07 04:34:27;;;;;;;;;;;19.70;67.70;;;;;;5047704;28;82818;-47
2022/06/07 04:36:53;;;;;;;;;;;19.70;67.90;;;;;;5047419;28;82087;-46
2022/06/07 04:39:18;;;;;;;;;;;19.70;67.60;;;;;;5047282;27;84110;-46
2022/06/07 04:41:44;;;;;;;;;;;19.70;67.70;;;;;;5047276;28;82457;-47
2022/06/07 04:44:09;;;;;;;;;;;19.60;67.50;;;;;;5047314;28;82361;-44
2022/06/07 04:46:35;;;;;;;;;;;19.70;67.80;;;;;;5047087;27;84145;-46
2022/06/07 04:49:00;;;;;;;;;;;19.70;67.70;;;;;;5047479;28;82945;-46
2022/06/07 04:51:27;;;;;;;;;;;19.70;67.50;;;;;;5047308;28;82164;-46
2022/06/07 04:53:53;;;;;;;;;;;19.70;67.50;;;;;;5049695;27;83598;-44
2022/06/07 04:56:23;;;;;;;;;;;19.60;67.70;;;;;;5046551;28;83068;-45
2022/06/07 04:58:49;;;;;;;;;;;19.60;67.70;;;;;;5046818;27;83188;-47
2022/06/07 05:01:16;;;;;;;;;;;19.60;67.80;;;;;;5047117;28;83049;-45
2022/06/07 05:03:41;;;;;;;;;;;19.60;67.60;;;;;;5047231;28;82088;-47
2022/06/07 05:06:17;;;;;;;;;;;19.60;67.70;;;;;;5046966;28;82740;-44
2022/06/07 05:08:42;;;;;;;;;;;19.60;67.70;;;;;;5046775;28;82885;-46
2022/06/07 05:11:08;;;;;;;;;;;19.60;67.60;;;;;;5046403;28;81924;-45
2022/06/07 05:13:33;;;;;;;;;;;19.60;67.70;;;;;;5049900;28;81607;-44
2022/06/07 05:15:59;;;;;;;;;;;19.60;67.70;;;;;;5046863;28;81960;-44
2022/06/07 05:18:24;;;;;;;;;;;19.60;67.80;;;;;;5047044;28;82373;-45
2022/06/07 05:20:50;;;;;;;;;;;19.60;67.80;;;;;;5046243;28;84050;-45
2022/06/07 05:23:15;;;;;;;;;;;19.60;67.70;;;;;;5046825;28;81829;-45
2022/06/07 05:25:51;;;;;;;;;;;19.60;67.60;;;;;;5046679;27;82078;-45
2022/06/07 05:28:16;;;;;;;;;;;19.60;67.70;;;;;;5046255;28;83169;-46
2022/06/07 05:30:42;;;;;;;;;;;19.60;67.70;;;;;;5046389;28;81981;-44
2022/06/07 05:33:08;;;;;;;;;;;19.60;67.60;;;;;;5046654;28;81967;-44
2022/06/07 05:35:33;;;;;;;;;;;19.60;67.70;;;;;;5049124;28;82997;-45
2022/06/07 05:37:59;;;;;;;;;;;19.60;67.60;;;;;;5047183;28;82267;-46
2022/06/07 05:40:24;;;;;;;;;;;19.60;67.70;;;;;;5046401;28;83070;-45
2022/06/07 05:42:50;;;;;;;;;;;19.60;67.60;;;;;;5045848;27;81823;-45
2022/06/07 05:45:15;;;;;;;;;;;19.60;67.80;;;;;;5045955;28;82933;-45
2022/06/07 05:47:41;;;;;;;;;;;19.60;67.80;;;;;;5046304;28;83171;-47
2022/06/07 05:50:09;;;;;;;;;;;19.60;67.90;;;;;;5046493;28;82382;-47
2022/06/07 05:52:40;;;;;;;;;;;19.60;67.90;;;;;;5046198;28;83862;-45
2022/06/07 05:55:06;;;;;;;;;;;19.50;67.70;;;;;;5045887;27;84308;-44
2022/06/07 05:57:31;;;;;;;;;;;19.60;67.80;;;;;;5049040;28;81940;-45
2022/06/07 05:59:57;;;;;;;;;;;19.60;67.70;;;;;;5046244;28;82156;-45
2022/06/07 06:02:23;;;;;;;;;;;19.70;67.60;;;;;;5046867;28;81419;-44
2022/06/07 06:04:48;;;;;;;;;;;19.60;67.80;;;;;;5046443;28;81994;-45
2022/06/07 06:07:14;;;;;;;;;;;19.70;67.80;;;;;;5045887;28;82938;-48
2022/06/07 06:12:23;;;;;;;;;;;19.60;67.80;;;;;;5045729;28;82630;-49
2022/06/07 06:14:49;;;;;;;;;;;19.60;67.90;;;;;;5045712;28;84687;-48
2022/06/07 06:17:15;;;;;;;;;;;19.60;67.80;;;;;;5045932;28;82573;-44
2022/06/07 06:19:40;;;;;;;;;;;19.70;67.80;;;;;;5048528;27;83951;-44
2022/06/07 06:22:06;;;;;;;;;;;19.60;67.80;;;;;;5045991;28;82063;-44
2022/06/07 06:24:31;;;;;;;;;;;19.60;67.90;;;;;;5045919;27;82303;-46
2022/06/07 06:26:58;;;;;;;;;;;19.70;68.00;;;;;;5046322;28;82435;-47
2022/06/07 06:29:24;;;;;;;;;;;19.70;67.90;;;;;;5045397;28;82033;-46
2022/06/07 06:31:51;;;;;;;;;;;19.60;67.80;;;;;;5045751;27;82426;-44
2022/06/07 06:34:17;;;;;;;;;;;19.70;68.70;;;;;;5044999;28;83800;-46
2022/06/07 06:36:44;;;;;;;;;;;19.70;67.90;;;;;;5045783;28;81992;-45
2022/06/07 06:39:09;;;;;;;;;;;19.70;67.90;;;;;;5045380;27;83852;-46
2022/06/07 06:41:35;;;;;;;;;;;19.70;68.00;;;;;;5048553;28;82150;-48
2022/06/07 06:44:02;;;;;;;;;;;19.60;68.10;;;;;;5045974;28;82015;-45
2022/06/07 06:46:32;;;;;;;;;;;19.60;68.30;;;;;;5045123;28;84871;-46
2022/06/07 06:48:58;;;;;;;;;;;19.60;68.30;;;;;;5045774;28;81908;-45
2022/06/07 06:51:25;;;;;;;;;;;19.60;68.20;;;;;;5046239;27;82406;-46
2022/06/07 06:53:50;;;;;;;;;;;19.60;68.30;;;;;;5046041;27;83085;-44
2022/06/07 06:56:18;;;;;;;;;;;19.60;68.10;;;;;;5049294;28;82142;-45
2022/06/07 06:58:43;;;;;;;;;;;19.60;68.40;;;;;;5048291;27;83875;-45
2022/06/07 07:01:11;;;;;;;;;;;19.60;68.00;;;;;;5048889;28;83218;-43
2022/06/07 07:03:37;;;;;;;;;;;19.60;68.20;;;;;;5051906;28;82897;-46
2022/06/07 07:06:03;;;;;;;;;;;19.60;68.20;;;;;;5048791;28;83087;-46
2022/06/07 07:08:29;;;;;;;;;;;19.60;67.90;;;;;;5048737;28;81950;-44
2022/06/07 07:11:09;;;;;;;;;;;19.70;68.00;;;;;;5048242;27;83897;-44
2022/06/07 07:13:35;;;;;;;;;;;19.70;68.00;;;;;;5048669;28;82174;-45
2022/06/07 07:16:02;;;;;;;;;;;19.70;67.90;;;;;;5049007;28;81381;-45
2022/06/07 07:18:27;;;;;;;;;;;19.70;67.80;;;;;;5049172;27;82031;-45
2022/06/07 07:20:53;;;;;;;;;;;19.70;67.70;;;;;;5048298;28;84251;-45
2022/06/07 07:23:19;;;;;;;;;;;19.70;67.60;;;;;;5050805;28;83079;-48
2022/06/07 07:25:45;;;;;;;;;;;19.70;67.70;;;;;;5048119;28;84495;-46
2022/06/07 07:28:10;;;;;;;;;;;19.70;67.70;;;;;;5048386;28;82041;-46
2022/06/07 07:30:37;;;;;;;;;;;19.70;67.40;;;;;;5048544;28;82544;-44
2022/06/07 07:33:02;;;;;;;;;;;19.80;67.60;;;;;;5048421;28;82929;-44
2022/06/07 07:35:29;;;;;;;;;;;19.70;67.60;;;;;;5048618;28;82041;-46
2022/06/07 07:37:57;;;;;;;;;;;19.70;67.60;;;;;;5047965;27;84017;-47
2022/06/07 07:40:22;;;;;;;;;;;19.80;67.40;;;;;;5048463;28;82955;-45
2022/06/07 07:42:48;;;;;;;;;;;19.80;67.60;;;;;;5048536;28;82035;-47
2022/06/07 07:45:13;;;;;;;;;;;19.80;67.60;;;;;;5050939;28;82753;-44
2022/06/07 07:47:39;;;;;;;;;;;19.80;67.60;;;;;;5047750;28;83144;-44
2022/06/07 07:50:05;;;;;;;;;;;19.80;67.50;;;;;;5048455;27;83353;-45
2022/06/07 07:52:30;;;;;;;;;;;19.80;67.20;;;;;;5047634;28;83470;-44
2022/06/07 07:54:57;;;;;;;;;;;19.80;67.40;;;;;;5048078;28;82047;-44
2022/06/07 07:57:23;;;;;;;;;;;19.80;67.20;;;;;;5048277;27;81989;-46
2022/06/07 07:59:48;;;;;;;;;;;19.80;67.70;;;;;;5048042;28;82960;-47
2022/06/07 08:02:18;;;;;;;;;;;19.80;67.50;;;;;;5048195;28;82124;-44
2022/06/07 08:04:44;;;;;;;;;;;19.80;67.50;;;;;;5047942;27;83969;-45
2022/06/07 08:07:09;;;;;;;;;;;19.80;67.70;;;;;;5050665;28;82858;-45
2022/06/07 08:09:35;;;;;;;;;;;19.80;67.40;;;;;;5048013;28;82576;-44
2022/06/07 08:12:05;;;;;;;;;;;19.80;67.70;;;;;;5046592;28;84105;-45
2022/06/07 08:14:31;;;;;;;;;;;19.90;67.40;;;;;;5047814;28;82027;-43
2022/06/07 08:16:57;;;;;;;;;;;19.80;67.40;;;;;;5047984;28;82050;-44
2022/06/07 08:19:22;;;;;;;;;;;19.90;67.30;;;;;;5047768;28;83476;-44
2022/06/07 08:21:48;;;;;;;;;;;19.90;67.30;;;;;;5047260;28;82183;-45
2022/06/07 08:24:13;;;;;;;;;;;19.90;67.40;;;;;;5047546;27;83264;-44
2022/06/07 08:26:39;;;;;;;;;;;19.90;67.40;;;;;;5047568;28;83060;-47
2022/06/07 08:29:05;;;;;;;;;;;19.90;67.40;;;;;;5051048;28;81314;-45
2022/06/07 08:31:31;;;;;;;;;;;19.90;67.40;;;;;;5047299;28;82032;-44
2022/06/07 08:39:27;;;;;;;;;;;19.90;67.30;;;;;;5047686;28;82092;-46
2022/06/07 08:41:53;;;;;;;;;;;19.90;67.40;;;;;;5047343;28;82079;-46
2022/06/07 08:44:26;;;;;;;;;;;19.80;67.40;;;;;;5047458;28;82298;-46
2022/06/07 08:46:54;;;;;;;;;;;19.90;67.40;;;;;;5046739;28;84611;-47
2022/06/07 08:49:19;;;;;;;;;;;19.90;67.30;;;;;;5047448;28;82119;-45
2022/06/07 08:51:45;;;;;;;;;;;19.90;67.30;;;;;;5049706;28;82460;-44
2022/06/07 08:54:17;;;;;;;;;;;19.90;67.30;;;;;;5046431;28;81456;-46
2022/06/07 08:56:44;;;;;;;;;;;19.90;67.20;;;;;;5047124;27;83098;-46
2022/06/07 08:59:12;;;;;;;;;;;19.90;67.30;;;;;;5046836;28;84387;-45
2022/06/07 09:01:47;;;;;;;;;;;19.90;67.20;;;;;;5046325;28;83069;-45
2022/06/07 09:04:14;;;;;;;;;;;19.90;67.60;;;;;;5047139;27;84799;-45
2022/06/07 09:06:43;;;;;;;;;;;19.90;67.50;;;;;;5046746;28;84371;-45
2022/06/07 09:09:10;;;;;;;;;;;19.90;67.60;;;;;;5046852;28;82113;-46
2022/06/07 09:14:48;;;;;;;;;;;19.90;67.20;;;;;;5046474;28;84242;-46
2022/06/07 09:17:19;;;;;;;;;;;20.00;67.40;;;;;;5045753;27;81929;-47
2022/06/07 09:19:45;;;;;;;;;;;19.90;67.30;;;;;;5047284;28;81343;-45
2022/06/07 09:22:22;;;;;;;;;;;19.90;67.70;;;;;;5046671;28;82106;-47
2022/06/07 09:25:10;;;;;;;;;;;20.00;67.60;;;;;;5046735;27;83786;-44
2022/06/07 09:27:36;;;;;;;;;;;20.00;67.40;;;;;;5045650;27;84382;-44
2022/06/07 09:30:20;;;;;;;;;;;20.00;67.30;;;;;;5046612;28;82067;-47
2022/06/07 09:32:49;;;;;;;;;;;20.00;67.60;;;;;;5046717;28;83079;-48
2022/06/07 09:35:20;;;;;;;;;;;20.00;67.70;;;;;;5049158;28;84471;-44
2022/06/07 09:37:52;;;;;;;;;;;20.10;67.90;;;;;;5046787;27;82914;-45
2022/06/07 09:40:23;;;;;;;;;;;20.10;68.10;;;;;;5046258;28;82697;-45
2022/06/07 09:42:53;;;;;;;;;;;20.10;68.30;;;;;;5046280;28;82082;-46
2022/06/07 09:45:25;;;;;;;;;;;20.10;68.50;;;;;;5046613;28;81135;-46
2022/06/07 09:47:51;;;;;;;;;;;20.10;68.30;;;;;;5046260;28;82825;-44
2022/06/07 09:50:23;;;;;;;;;;;20.10;68.40;;;;;;5046476;28;82064;-44
2022/06/07 09:52:56;;;;;;;;;;;20.10;68.70;;;;;;5045582;27;83867;-45
2022/06/07 09:55:21;;;;;;;;;;;20.10;68.10;;;;;;5045869;28;83476;-44
2022/06/07 09:58:00;;;;;;;;;;;20.10;68.10;;;;;;5049248;28;81831;-46
2022/06/07 10:00:26;;;;;;;;;;;20.10;68.40;;;;;;5046302;28;82562;-47
2022/06/07 10:03:00;;;;;;;;;;;20.20;68.30;;;;;;5045982;28;81925;-46
2022/06/07 10:05:30;;;;;;;;;;;20.10;68.40;;;;;;5046350;28;82465;-46
2022/06/07 10:08:09;;;;;;;;;;;20.10;68.30;;;;;;5045912;28;84550;-45
2022/06/07 10:10:51;;;;;;;;;;;20.20;68.30;;;;;;5046086;28;81202;-44
2022/06/07 10:13:35;;;;;;;;;;;20.20;68.10;;;;;;5046197;28;82452;-46
2022/06/07 10:16:10;;;;;;;;;;;20.20;67.70;;;;;;5045931;27;83113;-46
2022/06/07 10:18:36;;;;;;;;;;;20.20;67.80;;;;;;5045655;28;82909;-46
2022/06/07 10:21:01;;;;;;;;;;;20.20;68.50;;;;;;5048210;27;83310;-44
2022/06/07 10:23:33;;;;;;;;;;;20.20;67.60;;;;;;5046097;28;82011;-45
2022/06/07 10:26:13;;;;;;;;;;;20.30;67.40;;;;;;5045979;28;82628;-46
2022/06/07 10:28:42;;;;;;;;;;;20.30;67.50;;;;;;5047991;27;82993;-45
2022/06/07 10:31:16;;;;;;;;;;;20.30;67.50;;;;;;5049234;28;82070;-46
2022/06/07 10:33:55;;;;;;;;;;;20.30;67.30;;;;;;5049322;27;83862;-45
2022/06/07 10:36:33;;;;;;;;;;;20.30;67.20;;;;;;5049577;28;83593;-46
2022/06/07 10:39:01;;;;;;;;;;;20.40;67.20;;;;;;5049239;28;82035;-45
2022/06/07 10:41:32;;;;;;;;;;;20.40;67.30;;;;;;5049592;27;82386;-46
2022/06/07 10:44:01;;;;;;;;;;;20.30;67.00;;;;;;5051194;28;84003;-46
2022/06/07 10:46:28;;;;;;;;;;;20.40;67.00;;;;;;5049251;28;83675;-45
2022/06/07 10:49:02;;;;;;;;;;;20.40;66.80;;;;;;5048973;28;83170;-46
2022/06/07 10:54:22;;;;;;;;;;;20.40;66.80;;;;;;5049410;28;81848;-45
2022/06/07 10:56:52;;;;;;;;;;;20.40;66.70;;;;;;5049065;28;83118;-44
2022/06/07 10:59:20;;;;;;;;;;;20.50;66.60;;;;;;5049397;28;81940;-44
2022/06/07 11:01:53;;;;;;;;;;;20.50;66.50;;;;;;5049304;28;84288;-48
2022/06/07 11:10:07;;;;;;;;;;;20.50;66.30;;;;;;5048291;28;82983;-45
2022/06/07 11:12:52;;;;;;;;;;;20.50;66.20;;;;;;5048416;28;81991;-46
2022/06/07 11:15:22;;;;;;;;;;;20.60;66.10;;;;;;5040562;28;82532;-47
2022/06/07 11:17:53;;;;;;;;;;;20.60;65.80;;;;;;5048556;28;82927;-45
2022/06/07 11:20:21;;;;;;;;;;;20.60;66.00;;;;;;5048806;28;81885;-45
2022/06/07 11:22:52;;;;;;;;;;;20.60;65.80;;;;;;5048833;28;82520;-45
2022/06/07 11:25:21;;;;;;;;;;;20.60;65.80;;;;;;5048967;28;83192;-45
2022/06/07 11:27:54;;;;;;;;;;;20.60;65.80;;;;;;5049105;28;81300;-45
2022/06/07 11:30:21;;;;;;;;;;;20.60;65.70;;;;;;5050997;28;82480;-44
2022/06/07 11:32:50;;;;;;;;;;;20.70;65.60;;;;;;5048443;28;82277;-46
2022/06/07 11:35:34;;;;;;;;;;;20.70;65.60;;;;;;5048061;28;82859;-44
2022/06/07 11:38:11;;;;;;;;;;;20.70;65.70;;;;;;5048218;27;83444;-46
2022/06/07 11:40:37;;;;;;;;;;;20.70;65.70;;;;;;5047655;27;82139;-45
2022/06/07 11:43:02;;;;;;;;;;;20.70;65.70;;;;;;5048457;28;81979;-45
2022/06/07 11:45:28;;;;;;;;;;;20.80;65.80;;;;;;5048325;28;83059;-45
2022/06/07 11:48:14;;;;;;;;;;;20.80;65.80;;;;;;5048396;28;82096;-44
2022/06/07 11:50:47;;;;;;;;;;;20.80;66.30;;;;;;5042571;27;83310;-44
2022/06/07 11:53:19;;;;;;;;;;;20.80;65.50;;;;;;5048635;28;81132;-44
2022/06/07 11:55:45;;;;;;;;;;;20.80;65.60;;;;;;5048119;28;83527;-46
2022/06/07 11:58:10;;;;;;;;;;;20.90;65.60;;;;;;5048138;28;83078;-45
2022/06/07 12:00:47;;;;;;;;;;;20.80;65.30;;;;;;5047644;28;83065;-46
2022/06/07 12:03:28;;;;;;;;;;;20.90;65.50;;;;;;5047572;27;83890;-45
2022/06/07 12:05:56;;;;;;;;;;;20.90;65.50;;;;;;5047720;28;84191;-45
2022/06/07 12:08:24;;;;;;;;;;;20.90;65.40;;;;;;5048096;28;82108;-46
2022/06/07 12:10:59;;;;;;;;;;;20.90;65.40;;;;;;5047464;28;82532;-45
2022/06/07 12:16:12;;;;;;;;;;;20.90;65.30;;;;;;5047910;28;81948;-45
2022/06/07 12:18:37;;;;;;;;;;;21.00;65.20;;;;;;5047889;28;83478;-45
2022/06/07 12:21:07;;;;;;;;;;;21.00;65.10;;;;;;5047508;28;82089;-44
2022/06/07 12:23:35;;;;;;;;;;;21.00;65.10;;;;;;5047696;27;82374;-45
2022/06/07 12:26:16;;;;;;;;;;;21.00;65.10;;;;;;5046777;28;83163;-45
2022/06/07 12:28:48;;;;;;;;;;;21.10;65.00;;;;;;5047812;28;81857;-46
2022/06/07 12:31:25;;;;;;;;;;;21.10;65.00;;;;;;5047498;27;82411;-46
2022/06/07 12:33:51;;;;;;;;;;;21.10;65.10;;;;;;5047166;28;85021;-45
2022/06/07 12:36:19;;;;;;;;;;;21.10;65.10;;;;;;5050292;28;82039;-45
2022/06/07 12:38:45;;;;;;;;;;;21.20;64.90;;;;;;5047091;28;84192;-44
2022/06/07 12:41:20;;;;;;;;;;;21.20;64.80;;;;;;5047395;28;82055;-46
2022/06/07 12:43:46;;;;;;;;;;;21.20;64.70;;;;;;5047791;27;85099;-45
2022/06/07 12:46:27;;;;;;;;;;;21.20;64.80;;;;;;5047116;28;82076;-45
2022/06/07 12:48:53;;;;;;;;;;;21.20;64.70;;;;;;5047216;28;82018;-46
2022/06/07 12:51:22;;;;;;;;;;;21.20;64.70;;;;;;5045426;27;82876;-45
2022/06/07 12:53:49;;;;;;;;;;;21.30;64.60;;;;;;5047276;28;82857;-45
2022/06/07 12:56:15;;;;;;;;;;;21.30;64.60;;;;;;5047380;28;82103;-45
2022/06/07 12:58:49;;;;;;;;;;;21.30;64.50;;;;;;5049819;27;82039;-45
2022/06/07 13:01:19;;;;;;;;;;;21.30;64.50;;;;;;5047026;28;82039;-45
2022/06/07 13:03:44;;;;;;;;;;;21.30;64.50;;;;;;5047141;28;81947;-45
2022/06/07 13:06:18;;;;;;;;;;;21.30;64.40;;;;;;5046698;28;83479;-45
2022/06/07 13:08:54;;;;;;;;;;;21.40;64.20;;;;;;5047717;28;81087;-44
2022/06/07 13:11:20;;;;;;;;;;;21.40;64.30;;;;;;5046346;27;83153;-44
2022/06/07 13:13:46;;;;;;;;;;;21.40;64.30;;;;;;5046890;28;83209;-46
2022/06/07 13:16:11;;;;;;;;;;;21.50;64.40;;;;;;5046359;28;82899;-46
2022/06/07 13:18:39;;;;;;;;;;;21.40;64.20;;;;;;5046738;27;83233;-46
2022/06/07 13:21:11;;;;;;;;;;;21.50;64.40;;;;;;5049078;28;83160;-44
2022/06/07 13:23:38;;;;;;;;;;;21.50;64.40;;;;;;5046914;28;82173;-44
2022/06/07 13:26:10;;;;;;;;;;;21.60;64.40;;;;;;5046500;28;83132;-44
2022/06/07 13:28:35;;;;;;;;;;;21.50;64.00;;;;;;5046842;28;82210;-46
2022/06/07 13:31:02;;;;;;;;;;;21.50;64.00;;;;;;5046547;27;82391;-45
2022/06/07 13:33:27;;;;;;;;;;;21.60;63.80;;;;;;5046812;28;83862;-43
2022/06/07 13:35:58;;;;;;;;;;;21.60;63.50;;;;;;5046619;28;81799;-45
2022/06/07 13:38:26;;;;;;;;;;;21.60;63.70;;;;;;5046340;28;83945;-45
2022/06/07 13:41:09;;;;;;;;;;;21.70;63.60;;;;;;5045752;28;83959;-45
2022/06/07 13:43:36;;;;;;;;;;;21.70;63.40;;;;;;5049028;28;82015;-44
2022/06/07 13:46:06;;;;;;;;;;;21.70;63.30;;;;;;5046199;28;82176;-45
2022/06/07 13:54:14;;;;;;;;;;;21.80;62.60;;;;;;5046112;28;82077;-46
2022/06/07 13:56:39;;;;;;;;;;;21.90;62.70;;;;;;5046535;28;82124;-46
2022/06/07 13:59:05;;;;;;;;;;;21.90;62.70;;;;;;5046565;27;84247;-46
2022/06/07 14:01:34;;;;;;;;;;;21.90;62.90;;;;;;5045395;28;82761;-45
2022/06/07 14:04:01;;;;;;;;;;;21.90;62.40;;;;;;5048609;27;82033;-46
2022/06/07 14:06:32;;;;;;;;;;;21.90;62.10;;;;;;5045001;28;83906;-45
2022/06/07 14:08:59;;;;;;;;;;;21.80;60.80;;;;;;5046254;28;82060;-48
2022/06/07 14:11:24;;;;;;;;;;;21.80;59.90;;;;;;5045519;28;81989;-47
2022/06/07 14:13:51;;;;;;;;;;;21.90;59.90;;;;;;5045778;28;84187;-53
2022/06/07 14:16:26;;;;;;;;;;;21.90;59.00;;;;;;5046031;28;82230;-42
2022/06/07 14:18:51;;;;;;;;;;;22.00;57.70;;;;;;5045990;27;81952;-46
2022/06/07 14:21:17;;;;;;;;;;;22.00;58.90;;;;;;5045694;28;82859;-49
2022/06/07 14:23:42;;;;;;;;;;;21.90;59.10;;;;;;5046733;28;81416;-47
2022/06/07 14:26:09;;;;;;;;;;;22.00;58.70;;;;;;5048666;28;81881;-45
2022/06/07 14:28:35;;;;;;;;;;;22.00;58.30;;;;;;5046090;28;82107;-42
2022/06/07 14:31:00;;;;;;;;;;;22.10;57.80;;;;;;5045257;28;83046;-45
2022/06/07 14:33:26;;;;;;;;;;;22.10;57.80;;;;;;5045306;28;82977;-47
2022/06/07 14:35:52;;;;;;;;;;;22.10;56.20;;;;;;5045603;28;82562;-46
2022/06/07 14:38:19;;;;;;;;;;;22.10;56.60;;;;;;5045992;28;82632;-44
2022/06/07 14:40:45;;;;;;;;;;;22.10;55.80;;;;;;5045476;28;83065;-41
2022/06/07 14:43:13;;;;;;;;;;;22.20;57.40;;;;;;5045925;28;82957;-47
2022/06/07 14:45:44;;;;;;;;;;;22.30;57.10;;;;;;5045539;27;82907;-42
2022/06/07 14:48:16;;;;;;;;;;;22.30;57.10;;;;;;5048399;28;83144;-43
2022/06/07 14:50:41;;;;;;;;;;;22.40;56.90;;;;;;5045793;28;82042;-47
2022/06/07 14:53:10;;;;;;;;;;;22.30;54.90;;;;;;5045168;28;83239;-46
2022/06/07 14:55:35;;;;;;;;;;;22.40;55.70;;;;;;5044989;28;83157;-44
2022/06/07 14:58:01;;;;;;;;;;;22.40;56.10;;;;;;5045638;28;83386;-47